sensor_id;sensor_type;location;lat;lon;timestamp;P1;durP1;ratioP1;P2;durP2;ratioP2
38130;SDS011;23947;51.894;4.622;2022-10-30T00:01:14;20.27;;;6.53;;
38130;SDS011;23947;51.894;4.622;2022-10-30T00:03:39;25.83;;;6.40;;
38130;SDS011;23947;51.894;4.622;2022-10-30T00:06:05;18.90;;;5.82;;
38130;SDS011;23947;51.894;4.622;2022-10-30T00:08:31;23.33;;;6.57;;
38130;SDS011;23947;51.894;4.622;2022-10-30T00:11:03;25.33;;;6.82;;
38130;SDS011;23947;51.894;4.622;2022-10-30T00:13:32;23.23;;;7.30;;
38130;SDS011;23947;51.894;4.622;2022-10-30T00:15:58;22.15;;;7.35;;
38130;SDS011;23947;51.894;4.622;2022-10-30T00:18:23;19.38;;;7.00;;
38130;SDS011;23947;51.894;4.622;2022-10-30T00:20:49;19.15;;;6.45;;
38130;SDS011;23947;51.894;4.622;2022-10-30T00:23:15;21.42;;;6.43;;
38130;SDS011;23947;51.894;4.622;2022-10-30T00:25:41;19.95;;;6.25;;
38130;SDS011;23947;51.894;4.622;2022-10-30T00:28:06;22.70;;;6.97;;
38130;SDS011;23947;51.894;4.622;2022-10-30T00:30:32;20.90;;;7.18;;
38130;SDS011;23947;51.894;4.622;2022-10-30T00:32:59;21.92;;;7.47;;
38130;SDS011;23947;51.894;4.622;2022-10-30T00:35:24;21.75;;;6.80;;
38130;SDS011;23947;51.894;4.622;2022-10-30T00:37:50;18.63;;;7.03;;
38130;SDS011;23947;51.894;4.622;2022-10-30T00:40:16;19.52;;;7.45;;
38130;SDS011;23947;51.894;4.622;2022-10-30T00:42:42;20.77;;;6.70;;
38130;SDS011;23947;51.894;4.622;2022-10-30T00:45:11;17.65;;;6.45;;
38130;SDS011;23947;51.894;4.622;2022-10-30T00:47:39;17.70;;;7.05;;
38130;SDS011;23947;51.894;4.622;2022-10-30T00:52:53;20.43;;;6.70;;
38130;SDS011;23947;51.894;4.622;2022-10-30T00:55:26;27.27;;;7.18;;
38130;SDS011;23947;51.894;4.622;2022-10-30T00:57:58;29.42;;;8.30;;
38130;SDS011;23947;51.894;4.622;2022-10-30T01:00:25;24.17;;;7.50;;
38130;SDS011;23947;51.894;4.622;2022-10-30T01:02:52;23.77;;;7.82;;
38130;SDS011;23947;51.894;4.622;2022-10-30T01:05:19;20.15;;;7.07;;
38130;SDS011;23947;51.894;4.622;2022-10-30T01:07:47;27.67;;;8.57;;
38130;SDS011;23947;51.894;4.622;2022-10-30T01:10:13;21.23;;;7.60;;
38130;SDS011;23947;51.894;4.622;2022-10-30T01:12:39;25.92;;;7.72;;
38130;SDS011;23947;51.894;4.622;2022-10-30T01:15:06;32.47;;;8.07;;
38130;SDS011;23947;51.894;4.622;2022-10-30T01:28:45;25.95;;;8.35;;
38130;SDS011;23947;51.894;4.622;2022-10-30T01:39:10;23.08;;;7.65;;
38130;SDS011;23947;51.894;4.622;2022-10-30T01:41:38;25.10;;;8.07;;
38130;SDS011;23947;51.894;4.622;2022-10-30T01:44:06;28.67;;;7.93;;
38130;SDS011;23947;51.894;4.622;2022-10-30T01:46:47;21.67;;;7.55;;
38130;SDS011;23947;51.894;4.622;2022-10-30T01:57:36;26.55;;;7.68;;
38130;SDS011;23947;51.894;4.622;2022-10-30T02:00:15;17.63;;;7.18;;
38130;SDS011;23947;51.894;4.622;2022-10-30T02:02:44;21.30;;;7.22;;
38130;SDS011;23947;51.894;4.622;2022-10-30T02:05:10;21.30;;;8.15;;
38130;SDS011;23947;51.894;4.622;2022-10-30T02:07:42;24.27;;;7.63;;
38130;SDS011;23947;51.894;4.622;2022-10-30T02:10:09;18.98;;;7.65;;
38130;SDS011;23947;51.894;4.622;2022-10-30T02:12:35;21.92;;;7.75;;
38130;SDS011;23947;51.894;4.622;2022-10-30T02:15:01;26.70;;;7.65;;
38130;SDS011;23947;51.894;4.622;2022-10-30T02:17:27;23.70;;;7.07;;
38130;SDS011;23947;51.894;4.622;2022-10-30T02:19:52;25.38;;;8.80;;
38130;SDS011;23947;51.894;4.622;2022-10-30T02:22:18;21.48;;;7.15;;
38130;SDS011;23947;51.894;4.622;2022-10-30T02:24:44;20.73;;;7.95;;
38130;SDS011;23947;51.894;4.622;2022-10-30T02:27:10;19.02;;;7.30;;
38130;SDS011;23947;51.894;4.622;2022-10-30T02:29:35;18.60;;;7.40;;
38130;SDS011;23947;51.894;4.622;2022-10-30T02:32:01;26.45;;;8.15;;
38130;SDS011;23947;51.894;4.622;2022-10-30T02:34:28;23.20;;;8.27;;
38130;SDS011;23947;51.894;4.622;2022-10-30T02:36:53;24.42;;;8.18;;
38130;SDS011;23947;51.894;4.622;2022-10-30T02:39:19;27.63;;;8.23;;
38130;SDS011;23947;51.894;4.622;2022-10-30T02:41:45;21.98;;;7.85;;
38130;SDS011;23947;51.894;4.622;2022-10-30T02:44:11;26.58;;;7.60;;
38130;SDS011;23947;51.894;4.622;2022-10-30T02:46:37;20.85;;;7.95;;
38130;SDS011;23947;51.894;4.622;2022-10-30T02:49:03;17.10;;;7.63;;
38130;SDS011;23947;51.894;4.622;2022-10-30T02:51:31;18.38;;;7.63;;
38130;SDS011;23947;51.894;4.622;2022-10-30T02:53:58;21.67;;;8.20;;
38130;SDS011;23947;51.894;4.622;2022-10-30T02:56:24;19.85;;;7.18;;
38130;SDS011;23947;51.894;4.622;2022-10-30T02:58:50;18.73;;;6.82;;
38130;SDS011;23947;51.894;4.622;2022-10-30T03:01:17;17.80;;;7.65;;
38130;SDS011;23947;51.894;4.622;2022-10-30T03:03:43;23.58;;;7.28;;
38130;SDS011;23947;51.894;4.622;2022-10-30T03:06:11;23.73;;;7.90;;
38130;SDS011;23947;51.894;4.622;2022-10-30T03:08:39;19.10;;;7.18;;
38130;SDS011;23947;51.894;4.622;2022-10-30T03:11:07;21.83;;;8.57;;
38130;SDS011;23947;51.894;4.622;2022-10-30T03:13:37;22.92;;;8.10;;
38130;SDS011;23947;51.894;4.622;2022-10-30T03:16:14;21.75;;;8.48;;
38130;SDS011;23947;51.894;4.622;2022-10-30T03:18:40;21.02;;;7.88;;
38130;SDS011;23947;51.894;4.622;2022-10-30T03:21:07;25.55;;;9.27;;
38130;SDS011;23947;51.894;4.622;2022-10-30T03:23:33;25.67;;;8.55;;
38130;SDS011;23947;51.894;4.622;2022-10-30T03:25:59;19.13;;;8.10;;
38130;SDS011;23947;51.894;4.622;2022-10-30T03:28:26;22.95;;;8.48;;
38130;SDS011;23947;51.894;4.622;2022-10-30T03:31:00;28.63;;;8.45;;
38130;SDS011;23947;51.894;4.622;2022-10-30T03:33:27;20.90;;;8.13;;
38130;SDS011;23947;51.894;4.622;2022-10-30T03:35:53;18.65;;;8.60;;
38130;SDS011;23947;51.894;4.622;2022-10-30T03:38:19;24.52;;;9.18;;
38130;SDS011;23947;51.894;4.622;2022-10-30T03:40:45;25.40;;;9.00;;
38130;SDS011;23947;51.894;4.622;2022-10-30T03:43:10;21.58;;;8.75;;
38130;SDS011;23947;51.894;4.622;2022-10-30T03:45:36;23.17;;;9.32;;
38130;SDS011;23947;51.894;4.622;2022-10-30T03:48:02;24.45;;;8.98;;
38130;SDS011;23947;51.894;4.622;2022-10-30T03:50:29;24.98;;;8.52;;
38130;SDS011;23947;51.894;4.622;2022-10-30T03:52:55;27.25;;;10.02;;
38130;SDS011;23947;51.894;4.622;2022-10-30T03:55:21;20.77;;;9.05;;
38130;SDS011;23947;51.894;4.622;2022-10-30T03:57:47;31.75;;;10.85;;
38130;SDS011;23947;51.894;4.622;2022-10-30T04:00:13;27.08;;;10.73;;
38130;SDS011;23947;51.894;4.622;2022-10-30T04:02:43;27.42;;;9.65;;
38130;SDS011;23947;51.894;4.622;2022-10-30T04:05:10;30.65;;;10.02;;
38130;SDS011;23947;51.894;4.622;2022-10-30T04:07:36;30.90;;;9.85;;
38130;SDS011;23947;51.894;4.622;2022-10-30T04:10:04;31.63;;;9.95;;
38130;SDS011;23947;51.894;4.622;2022-10-30T04:12:30;25.25;;;9.77;;
38130;SDS011;23947;51.894;4.622;2022-10-30T04:14:55;32.38;;;10.73;;
38130;SDS011;23947;51.894;4.622;2022-10-30T04:17:21;24.02;;;10.38;;
38130;SDS011;23947;51.894;4.622;2022-10-30T04:19:46;25.88;;;10.13;;
38130;SDS011;23947;51.894;4.622;2022-10-30T04:22:12;27.00;;;10.15;;
38130;SDS011;23947;51.894;4.622;2022-10-30T04:24:37;24.35;;;9.80;;
38130;SDS011;23947;51.894;4.622;2022-10-30T04:27:03;26.63;;;9.93;;
38130;SDS011;23947;51.894;4.622;2022-10-30T04:29:29;23.73;;;10.68;;
38130;SDS011;23947;51.894;4.622;2022-10-30T04:31:55;22.65;;;10.02;;
38130;SDS011;23947;51.894;4.622;2022-10-30T04:34:21;23.40;;;10.05;;
38130;SDS011;23947;51.894;4.622;2022-10-30T04:36:46;31.90;;;10.02;;
38130;SDS011;23947;51.894;4.622;2022-10-30T04:39:12;24.88;;;9.88;;
38130;SDS011;23947;51.894;4.622;2022-10-30T04:41:38;22.90;;;10.10;;
38130;SDS011;23947;51.894;4.622;2022-10-30T04:44:03;29.45;;;11.27;;
38130;SDS011;23947;51.894;4.622;2022-10-30T04:46:30;21.42;;;10.57;;
38130;SDS011;23947;51.894;4.622;2022-10-30T04:48:56;26.52;;;10.50;;
38130;SDS011;23947;51.894;4.622;2022-10-30T04:51:22;28.25;;;10.35;;
38130;SDS011;23947;51.894;4.622;2022-10-30T04:53:48;22.48;;;11.30;;
38130;SDS011;23947;51.894;4.622;2022-10-30T04:56:13;26.65;;;10.27;;
38130;SDS011;23947;51.894;4.622;2022-10-30T04:58:40;35.30;;;11.52;;
38130;SDS011;23947;51.894;4.622;2022-10-30T05:01:06;26.80;;;10.43;;
38130;SDS011;23947;51.894;4.622;2022-10-30T05:03:32;39.33;;;11.50;;
38130;SDS011;23947;51.894;4.622;2022-10-30T05:06:02;25.33;;;11.18;;
38130;SDS011;23947;51.894;4.622;2022-10-30T05:08:45;29.65;;;10.32;;
38130;SDS011;23947;51.894;4.622;2022-10-30T05:11:11;27.25;;;11.52;;
38130;SDS011;23947;51.894;4.622;2022-10-30T05:13:37;33.17;;;11.13;;
38130;SDS011;23947;51.894;4.622;2022-10-30T05:16:02;27.63;;;10.95;;
38130;SDS011;23947;51.894;4.622;2022-10-30T05:18:28;33.05;;;11.50;;
38130;SDS011;23947;51.894;4.622;2022-10-30T05:20:54;30.33;;;11.52;;
38130;SDS011;23947;51.894;4.622;2022-10-30T05:23:19;28.85;;;11.63;;
38130;SDS011;23947;51.894;4.622;2022-10-30T05:25:45;29.67;;;11.85;;
38130;SDS011;23947;51.894;4.622;2022-10-30T05:28:11;35.55;;;12.50;;
38130;SDS011;23947;51.894;4.622;2022-10-30T05:30:36;30.65;;;12.23;;
38130;SDS011;23947;51.894;4.622;2022-10-30T05:33:06;33.55;;;11.98;;
38130;SDS011;23947;51.894;4.622;2022-10-30T05:35:34;33.72;;;11.23;;
38130;SDS011;23947;51.894;4.622;2022-10-30T05:38:00;27.33;;;12.05;;
38130;SDS011;23947;51.894;4.622;2022-10-30T05:40:28;26.83;;;10.65;;
38130;SDS011;23947;51.894;4.622;2022-10-30T05:42:53;27.75;;;11.05;;
38130;SDS011;23947;51.894;4.622;2022-10-30T05:45:19;27.70;;;11.30;;
38130;SDS011;23947;51.894;4.622;2022-10-30T05:47:55;31.55;;;12.25;;
38130;SDS011;23947;51.894;4.622;2022-10-30T05:50:28;34.53;;;12.20;;
38130;SDS011;23947;51.894;4.622;2022-10-30T05:52:58;31.08;;;12.48;;
38130;SDS011;23947;51.894;4.622;2022-10-30T05:55:25;23.80;;;11.52;;
38130;SDS011;23947;51.894;4.622;2022-10-30T05:57:58;28.00;;;11.30;;
38130;SDS011;23947;51.894;4.622;2022-10-30T06:00:25;26.98;;;10.60;;
38130;SDS011;23947;51.894;4.622;2022-10-30T06:02:57;27.13;;;11.88;;
38130;SDS011;23947;51.894;4.622;2022-10-30T06:05:31;28.55;;;11.98;;
38130;SDS011;23947;51.894;4.622;2022-10-30T06:07:58;33.05;;;11.35;;
38130;SDS011;23947;51.894;4.622;2022-10-30T06:10:24;26.67;;;12.15;;
38130;SDS011;23947;51.894;4.622;2022-10-30T06:12:54;27.80;;;11.32;;
38130;SDS011;23947;51.894;4.622;2022-10-30T06:15:21;25.42;;;11.15;;
38130;SDS011;23947;51.894;4.622;2022-10-30T06:17:48;28.73;;;10.82;;
38130;SDS011;23947;51.894;4.622;2022-10-30T06:20:14;27.40;;;12.15;;
38130;SDS011;23947;51.894;4.622;2022-10-30T06:22:40;27.73;;;10.90;;
38130;SDS011;23947;51.894;4.622;2022-10-30T06:25:06;27.48;;;11.50;;
38130;SDS011;23947;51.894;4.622;2022-10-30T06:27:34;25.70;;;11.80;;
38130;SDS011;23947;51.894;4.622;2022-10-30T06:30:00;29.13;;;11.00;;
38130;SDS011;23947;51.894;4.622;2022-10-30T06:32:26;25.17;;;11.55;;
38130;SDS011;23947;51.894;4.622;2022-10-30T06:34:51;30.42;;;12.73;;
38130;SDS011;23947;51.894;4.622;2022-10-30T06:37:17;33.42;;;12.88;;
38130;SDS011;23947;51.894;4.622;2022-10-30T06:39:42;28.58;;;12.18;;
38130;SDS011;23947;51.894;4.622;2022-10-30T06:42:08;34.30;;;13.10;;
38130;SDS011;23947;51.894;4.622;2022-10-30T06:44:34;31.25;;;12.23;;
38130;SDS011;23947;51.894;4.622;2022-10-30T06:46:59;29.88;;;12.75;;
38130;SDS011;23947;51.894;4.622;2022-10-30T06:49:25;29.48;;;12.38;;
38130;SDS011;23947;51.894;4.622;2022-10-30T06:51:50;29.83;;;12.82;;
38130;SDS011;23947;51.894;4.622;2022-10-30T06:54:16;26.30;;;11.45;;
38130;SDS011;23947;51.894;4.622;2022-10-30T06:56:42;25.58;;;11.93;;
38130;SDS011;23947;51.894;4.622;2022-10-30T06:59:08;23.65;;;11.40;;
38130;SDS011;23947;51.894;4.622;2022-10-30T07:01:37;25.10;;;11.98;;
38130;SDS011;23947;51.894;4.622;2022-10-30T07:04:03;32.08;;;13.18;;
38130;SDS011;23947;51.894;4.622;2022-10-30T07:06:31;30.45;;;13.57;;
38130;SDS011;23947;51.894;4.622;2022-10-30T07:08:57;34.90;;;13.25;;
38130;SDS011;23947;51.894;4.622;2022-10-30T07:11:23;28.50;;;13.23;;
38130;SDS011;23947;51.894;4.622;2022-10-30T07:14:14;30.80;;;14.05;;
38130;SDS011;23947;51.894;4.622;2022-10-30T07:16:40;29.52;;;13.85;;
38130;SDS011;23947;51.894;4.622;2022-10-30T07:19:05;30.67;;;14.23;;
38130;SDS011;23947;51.894;4.622;2022-10-30T07:21:31;28.77;;;13.38;;
38130;SDS011;23947;51.894;4.622;2022-10-30T07:23:57;30.23;;;13.75;;
38130;SDS011;23947;51.894;4.622;2022-10-30T07:26:22;32.63;;;14.90;;
38130;SDS011;23947;51.894;4.622;2022-10-30T07:28:51;31.27;;;14.32;;
38130;SDS011;23947;51.894;4.622;2022-10-30T07:31:17;29.58;;;13.50;;
38130;SDS011;23947;51.894;4.622;2022-10-30T07:33:45;31.88;;;14.35;;
38130;SDS011;23947;51.894;4.622;2022-10-30T07:36:11;33.17;;;14.52;;
38130;SDS011;23947;51.894;4.622;2022-10-30T07:38:39;35.53;;;14.13;;
38130;SDS011;23947;51.894;4.622;2022-10-30T07:41:08;33.70;;;14.15;;
38130;SDS011;23947;51.894;4.622;2022-10-30T07:43:33;31.30;;;13.27;;
38130;SDS011;23947;51.894;4.622;2022-10-30T07:45:59;30.70;;;14.48;;
38130;SDS011;23947;51.894;4.622;2022-10-30T07:48:25;27.52;;;13.30;;
38130;SDS011;23947;51.894;4.622;2022-10-30T07:50:50;34.15;;;14.43;;
38130;SDS011;23947;51.894;4.622;2022-10-30T07:53:16;35.47;;;14.80;;
38130;SDS011;23947;51.894;4.622;2022-10-30T07:55:41;23.13;;;13.52;;
38130;SDS011;23947;51.894;4.622;2022-10-30T07:58:07;33.28;;;14.98;;
38130;SDS011;23947;51.894;4.622;2022-10-30T08:00:33;29.83;;;14.25;;
38130;SDS011;23947;51.894;4.622;2022-10-30T08:03:05;32.05;;;14.15;;
38130;SDS011;23947;51.894;4.622;2022-10-30T08:05:32;26.98;;;13.27;;
38130;SDS011;23947;51.894;4.622;2022-10-30T08:07:59;31.25;;;14.68;;
38130;SDS011;23947;51.894;4.622;2022-10-30T08:10:25;29.27;;;14.02;;
38130;SDS011;23947;51.894;4.622;2022-10-30T08:12:56;33.55;;;14.40;;
38130;SDS011;23947;51.894;4.622;2022-10-30T08:15:22;33.95;;;14.05;;
38130;SDS011;23947;51.894;4.622;2022-10-30T08:17:48;32.13;;;14.48;;
38130;SDS011;23947;51.894;4.622;2022-10-30T08:20:15;27.58;;;13.98;;
38130;SDS011;23947;51.894;4.622;2022-10-30T08:22:49;27.67;;;13.85;;
38130;SDS011;23947;51.894;4.622;2022-10-30T08:25:33;29.13;;;13.48;;
38130;SDS011;23947;51.894;4.622;2022-10-30T08:28:00;30.17;;;13.70;;
38130;SDS011;23947;51.894;4.622;2022-10-30T08:30:29;29.13;;;13.45;;
38130;SDS011;23947;51.894;4.622;2022-10-30T08:32:56;30.87;;;13.33;;
38130;SDS011;23947;51.894;4.622;2022-10-30T08:35:23;32.13;;;14.68;;
38130;SDS011;23947;51.894;4.622;2022-10-30T08:37:53;31.15;;;13.88;;
38130;SDS011;23947;51.894;4.622;2022-10-30T08:40:27;29.95;;;14.48;;
38130;SDS011;23947;51.894;4.622;2022-10-30T08:42:53;32.33;;;14.65;;
38130;SDS011;23947;51.894;4.622;2022-10-30T08:45:20;29.73;;;14.10;;
38130;SDS011;23947;51.894;4.622;2022-10-30T08:47:46;34.08;;;14.25;;
38130;SDS011;23947;51.894;4.622;2022-10-30T08:50:12;27.75;;;14.18;;
38130;SDS011;23947;51.894;4.622;2022-10-30T08:52:38;31.23;;;13.23;;
38130;SDS011;23947;51.894;4.622;2022-10-30T08:55:04;32.55;;;13.40;;
38130;SDS011;23947;51.894;4.622;2022-10-30T08:57:37;30.75;;;12.38;;
38130;SDS011;23947;51.894;4.622;2022-10-30T09:00:06;28.63;;;12.43;;
38130;SDS011;23947;51.894;4.622;2022-10-30T09:02:34;30.58;;;12.50;;
38130;SDS011;23947;51.894;4.622;2022-10-30T09:05:00;30.50;;;12.25;;
38130;SDS011;23947;51.894;4.622;2022-10-30T09:07:26;26.42;;;11.98;;
38130;SDS011;23947;51.894;4.622;2022-10-30T09:09:52;29.67;;;11.85;;
38130;SDS011;23947;51.894;4.622;2022-10-30T09:12:18;25.23;;;11.65;;
38130;SDS011;23947;51.894;4.622;2022-10-30T09:14:44;29.77;;;12.52;;
38130;SDS011;23947;51.894;4.622;2022-10-30T09:17:10;30.63;;;11.90;;
38130;SDS011;23947;51.894;4.622;2022-10-30T09:19:36;24.33;;;11.75;;
38130;SDS011;23947;51.894;4.622;2022-10-30T09:22:02;25.98;;;11.60;;
38130;SDS011;23947;51.894;4.622;2022-10-30T09:24:27;24.23;;;11.40;;
38130;SDS011;23947;51.894;4.622;2022-10-30T09:26:53;25.95;;;11.35;;
38130;SDS011;23947;51.894;4.622;2022-10-30T09:29:20;28.52;;;12.10;;
38130;SDS011;23947;51.894;4.622;2022-10-30T09:31:46;22.88;;;11.48;;
38130;SDS011;23947;51.894;4.622;2022-10-30T09:34:11;24.80;;;10.98;;
38130;SDS011;23947;51.894;4.622;2022-10-30T09:36:37;27.92;;;11.52;;
38130;SDS011;23947;51.894;4.622;2022-10-30T09:39:03;24.58;;;11.10;;
38130;SDS011;23947;51.894;4.622;2022-10-30T09:49:24;28.55;;;12.10;;
38130;SDS011;23947;51.894;4.622;2022-10-30T10:00:19;26.30;;;12.30;;
38130;SDS011;23947;51.894;4.622;2022-10-30T10:08:05;29.27;;;12.30;;
38130;SDS011;23947;51.894;4.622;2022-10-30T10:10:38;30.88;;;11.90;;
38130;SDS011;23947;51.894;4.622;2022-10-30T10:15:56;28.50;;;12.07;;
38130;SDS011;23947;51.894;4.622;2022-10-30T10:18:48;24.67;;;12.27;;
38130;SDS011;23947;51.894;4.622;2022-10-30T10:21:43;29.63;;;11.75;;
38130;SDS011;23947;51.894;4.622;2022-10-30T10:24:25;34.25;;;13.05;;
38130;SDS011;23947;51.894;4.622;2022-10-30T10:27:03;28.35;;;12.70;;
38130;SDS011;23947;51.894;4.622;2022-10-30T10:29:51;30.70;;;12.55;;
38130;SDS011;23947;51.894;4.622;2022-10-30T10:32:40;25.90;;;12.38;;
38130;SDS011;23947;51.894;4.622;2022-10-30T10:48:26;28.02;;;11.85;;
38130;SDS011;23947;51.894;4.622;2022-10-30T10:51:15;31.27;;;12.05;;
38130;SDS011;23947;51.894;4.622;2022-10-30T10:54:00;25.48;;;12.18;;
38130;SDS011;23947;51.894;4.622;2022-10-30T10:56:43;29.17;;;11.48;;
38130;SDS011;23947;51.894;4.622;2022-10-30T10:59:13;29.58;;;11.57;;
38130;SDS011;23947;51.894;4.622;2022-10-30T11:06:27;28.27;;;11.65;;
38130;SDS011;23947;51.894;4.622;2022-10-30T11:09:15;28.25;;;10.00;;
38130;SDS011;23947;51.894;4.622;2022-10-30T11:11:53;25.83;;;9.30;;
38130;SDS011;23947;51.894;4.622;2022-10-30T11:14:21;23.60;;;9.60;;
38130;SDS011;23947;51.894;4.622;2022-10-30T11:19:49;27.67;;;10.60;;
38130;SDS011;23947;51.894;4.622;2022-10-30T11:22:22;32.55;;;12.38;;
38130;SDS011;23947;51.894;4.622;2022-10-30T11:24:55;34.30;;;10.52;;
38130;SDS011;23947;51.894;4.622;2022-10-30T11:27:56;23.38;;;9.32;;
38130;SDS011;23947;51.894;4.622;2022-10-30T11:30:42;23.23;;;8.43;;
38130;SDS011;23947;51.894;4.622;2022-10-30T11:33:20;23.42;;;8.18;;
38130;SDS011;23947;51.894;4.622;2022-10-30T11:35:47;27.40;;;9.07;;
38130;SDS011;23947;51.894;4.622;2022-10-30T11:38:17;22.75;;;8.93;;
38130;SDS011;23947;51.894;4.622;2022-10-30T11:40:48;30.60;;;8.55;;
38130;SDS011;23947;51.894;4.622;2022-10-30T11:43:18;20.55;;;8.05;;
38130;SDS011;23947;51.894;4.622;2022-10-30T11:45:49;29.50;;;8.45;;
38130;SDS011;23947;51.894;4.622;2022-10-30T11:48:20;22.20;;;8.38;;
38130;SDS011;23947;51.894;4.622;2022-10-30T11:50:49;21.55;;;7.55;;
38130;SDS011;23947;51.894;4.622;2022-10-30T11:53:24;22.73;;;7.53;;
38130;SDS011;23947;51.894;4.622;2022-10-30T11:56:01;22.08;;;7.47;;
38130;SDS011;23947;51.894;4.622;2022-10-30T11:58:37;19.45;;;7.80;;
38130;SDS011;23947;51.894;4.622;2022-10-30T12:03:52;17.85;;;8.20;;
38130;SDS011;23947;51.894;4.622;2022-10-30T12:09:02;23.33;;;7.88;;
38130;SDS011;23947;51.894;4.622;2022-10-30T12:14:41;22.30;;;8.25;;
38130;SDS011;23947;51.894;4.622;2022-10-30T12:17:07;19.25;;;8.65;;
38130;SDS011;23947;51.894;4.622;2022-10-30T12:19:32;28.13;;;8.55;;
38130;SDS011;23947;51.894;4.622;2022-10-30T12:21:59;17.10;;;7.47;;
38130;SDS011;23947;51.894;4.622;2022-10-30T12:26:51;23.55;;;8.45;;
38130;SDS011;23947;51.894;4.622;2022-10-30T12:29:20;26.73;;;8.48;;
38130;SDS011;23947;51.894;4.622;2022-10-30T12:31:56;23.63;;;8.55;;
38130;SDS011;23947;51.894;4.622;2022-10-30T12:34:30;28.13;;;8.65;;
38130;SDS011;23947;51.894;4.622;2022-10-30T12:37:20;22.08;;;8.25;;
38130;SDS011;23947;51.894;4.622;2022-10-30T12:40:13;21.48;;;8.35;;
38130;SDS011;23947;51.894;4.622;2022-10-30T12:42:50;20.45;;;9.20;;
38130;SDS011;23947;51.894;4.622;2022-10-30T12:45:33;20.75;;;8.32;;
38130;SDS011;23947;51.894;4.622;2022-10-30T12:56:36;22.35;;;9.00;;
38130;SDS011;23947;51.894;4.622;2022-10-30T13:02:09;22.20;;;7.85;;
38130;SDS011;23947;51.894;4.622;2022-10-30T13:04:54;21.45;;;8.68;;
38130;SDS011;23947;51.894;4.622;2022-10-30T13:07:28;19.27;;;8.20;;
38130;SDS011;23947;51.894;4.622;2022-10-30T13:13:31;18.83;;;6.85;;
38130;SDS011;23947;51.894;4.622;2022-10-30T13:16:23;23.85;;;7.72;;
38130;SDS011;23947;51.894;4.622;2022-10-30T13:18:55;18.00;;;7.13;;
38130;SDS011;23947;51.894;4.622;2022-10-30T13:21:36;17.23;;;6.70;;
38130;SDS011;23947;51.894;4.622;2022-10-30T13:24:20;18.75;;;6.95;;
38130;SDS011;23947;51.894;4.622;2022-10-30T13:27:04;15.05;;;6.53;;
38130;SDS011;23947;51.894;4.622;2022-10-30T13:32:22;19.35;;;6.55;;
38130;SDS011;23947;51.894;4.622;2022-10-30T13:43:30;19.17;;;6.68;;
38130;SDS011;23947;51.894;4.622;2022-10-30T13:46:45;16.40;;;5.93;;
38130;SDS011;23947;51.894;4.622;2022-10-30T13:55:24;16.13;;;5.20;;
38130;SDS011;23947;51.894;4.622;2022-10-30T13:57:59;17.10;;;5.78;;
38130;SDS011;23947;51.894;4.622;2022-10-30T14:03:25;15.85;;;5.38;;
38130;SDS011;23947;51.894;4.622;2022-10-30T14:11:43;13.70;;;4.05;;
38130;SDS011;23947;51.894;4.622;2022-10-30T14:14:30;13.25;;;3.85;;
38130;SDS011;23947;51.894;4.622;2022-10-30T14:17:07;15.93;;;4.32;;
38130;SDS011;23947;51.894;4.622;2022-10-30T14:22:30;16.95;;;5.03;;
38130;SDS011;23947;51.894;4.622;2022-10-30T14:24:57;14.85;;;4.53;;
38130;SDS011;23947;51.894;4.622;2022-10-30T14:27:27;17.67;;;4.55;;
38130;SDS011;23947;51.894;4.622;2022-10-30T14:29:58;12.40;;;2.88;;
38130;SDS011;23947;51.894;4.622;2022-10-30T14:36:04;16.67;;;3.95;;
38130;SDS011;23947;51.894;4.622;2022-10-30T14:38:33;15.23;;;3.75;;
38130;SDS011;23947;51.894;4.622;2022-10-30T14:41:20;15.18;;;4.05;;
38130;SDS011;23947;51.894;4.622;2022-10-30T14:44:03;12.95;;;4.15;;
38130;SDS011;23947;51.894;4.622;2022-10-30T14:57:48;7.68;;;1.45;;
38130;SDS011;23947;51.894;4.622;2022-10-30T15:00:39;12.48;;;2.15;;
38130;SDS011;23947;51.894;4.622;2022-10-30T15:05:51;10.40;;;1.95;;
38130;SDS011;23947;51.894;4.622;2022-10-30T15:09:04;9.60;;;1.60;;
38130;SDS011;23947;51.894;4.622;2022-10-30T15:11:43;9.38;;;1.83;;
38130;SDS011;23947;51.894;4.622;2022-10-30T15:17:02;11.30;;;1.75;;
38130;SDS011;23947;51.894;4.622;2022-10-30T15:23:34;12.18;;;2.40;;
38130;SDS011;23947;51.894;4.622;2022-10-30T15:26:34;12.07;;;2.80;;
38130;SDS011;23947;51.894;4.622;2022-10-30T15:29:20;12.23;;;3.08;;
38130;SDS011;23947;51.894;4.622;2022-10-30T15:34:25;23.00;;;3.83;;
38130;SDS011;23947;51.894;4.622;2022-10-30T15:36:55;14.32;;;3.35;;
38130;SDS011;23947;51.894;4.622;2022-10-30T15:39:30;14.18;;;2.92;;
38130;SDS011;23947;51.894;4.622;2022-10-30T15:41:57;16.88;;;3.22;;
38130;SDS011;23947;51.894;4.622;2022-10-30T15:44:26;17.48;;;3.05;;
38130;SDS011;23947;51.894;4.622;2022-10-30T15:46:54;20.20;;;3.63;;
38130;SDS011;23947;51.894;4.622;2022-10-30T15:50:18;9.82;;;2.30;;
38130;SDS011;23947;51.894;4.622;2022-10-30T15:52:45;11.65;;;2.88;;
38130;SDS011;23947;51.894;4.622;2022-10-30T15:55:15;13.88;;;3.28;;
38130;SDS011;23947;51.894;4.622;2022-10-30T15:57:46;13.40;;;2.85;;
38130;SDS011;23947;51.894;4.622;2022-10-30T16:00:36;15.48;;;3.00;;
38130;SDS011;23947;51.894;4.622;2022-10-30T16:12:36;12.00;;;2.35;;
38130;SDS011;23947;51.894;4.622;2022-10-30T16:15:05;13.98;;;2.78;;
38130;SDS011;23947;51.894;4.622;2022-10-30T16:17:32;16.13;;;2.38;;
38130;SDS011;23947;51.894;4.622;2022-10-30T16:19:59;10.40;;;2.40;;
38130;SDS011;23947;51.894;4.622;2022-10-30T16:22:27;12.03;;;1.80;;
38130;SDS011;23947;51.894;4.622;2022-10-30T16:24:58;10.25;;;2.00;;
38130;SDS011;23947;51.894;4.622;2022-10-30T16:27:24;12.80;;;2.55;;
38130;SDS011;23947;51.894;4.622;2022-10-30T16:30:00;27.27;;;6.45;;
38130;SDS011;23947;51.894;4.622;2022-10-30T16:32:28;16.90;;;2.72;;
38130;SDS011;23947;51.894;4.622;2022-10-30T16:34:55;26.70;;;4.68;;
38130;SDS011;23947;51.894;4.622;2022-10-30T16:37:24;17.30;;;3.28;;
38130;SDS011;23947;51.894;4.622;2022-10-30T16:39:56;13.20;;;2.30;;
38130;SDS011;23947;51.894;4.622;2022-10-30T16:42:26;15.48;;;2.85;;
38130;SDS011;23947;51.894;4.622;2022-10-30T16:47:36;12.07;;;2.40;;
38130;SDS011;23947;51.894;4.622;2022-10-30T16:50:03;11.35;;;2.72;;
38130;SDS011;23947;51.894;4.622;2022-10-30T16:52:34;17.20;;;2.97;;
38130;SDS011;23947;51.894;4.622;2022-10-30T16:55:04;11.30;;;2.60;;
38130;SDS011;23947;51.894;4.622;2022-10-30T16:57:34;12.48;;;1.98;;
38130;SDS011;23947;51.894;4.622;2022-10-30T17:00:02;12.25;;;2.78;;
38130;SDS011;23947;51.894;4.622;2022-10-30T17:02:30;15.60;;;2.70;;
38130;SDS011;23947;51.894;4.622;2022-10-30T17:05:40;13.50;;;3.10;;
38130;SDS011;23947;51.894;4.622;2022-10-30T17:07:54;17.73;;;2.90;;
38130;SDS011;23947;51.894;4.622;2022-10-30T17:15:56;13.68;;;3.33;;
38130;SDS011;23947;51.894;4.622;2022-10-30T17:18:29;17.60;;;3.63;;
38130;SDS011;23947;51.894;4.622;2022-10-30T17:20:58;16.75;;;3.67;;
38130;SDS011;23947;51.894;4.622;2022-10-30T17:23:34;13.82;;;2.67;;
38130;SDS011;23947;51.894;4.622;2022-10-30T17:26:10;17.10;;;5.03;;
38130;SDS011;23947;51.894;4.622;2022-10-30T17:28:36;18.13;;;5.18;;
38130;SDS011;23947;51.894;4.622;2022-10-30T17:34:04;14.20;;;3.55;;
38130;SDS011;23947;51.894;4.622;2022-10-30T17:36:42;12.52;;;3.55;;
38130;SDS011;23947;51.894;4.622;2022-10-30T17:39:08;18.63;;;3.40;;
38130;SDS011;23947;51.894;4.622;2022-10-30T17:41:34;17.67;;;3.15;;
38130;SDS011;23947;51.894;4.622;2022-10-30T17:44:00;13.30;;;2.90;;